createdAt,value
2018-12-22T00:00:27.050Z,2.85
2018-12-22T00:04:30.702Z,2.47
2018-12-22T00:08:34.329Z,1.57
2018-12-22T00:12:37.969Z,1.87
2018-12-22T00:16:41.637Z,2.65
2018-12-22T00:20:45.256Z,2.27
2018-12-22T00:24:48.899Z,1.93
2018-12-22T00:28:52.518Z,2.20
2018-12-22T00:32:56.172Z,2.15
2018-12-22T00:36:59.797Z,2.03
2018-12-22T00:41:03.459Z,2.00
2018-12-22T00:45:07.284Z,2.62
2018-12-22T00:49:10.917Z,2.13
2018-12-22T00:53:14.545Z,2.60
2018-12-22T00:57:18.197Z,2.70
2018-12-22T01:01:21.797Z,2.40
2018-12-22T01:05:25.453Z,2.02
2018-12-22T01:09:29.146Z,3.90
2018-12-22T01:13:32.789Z,1.70
2018-12-22T01:17:36.457Z,2.92
2018-12-22T01:21:40.059Z,2.57
2018-12-22T01:25:43.770Z,2.65
2018-12-22T01:29:47.413Z,2.42
2018-12-22T01:33:51.133Z,2.97
2018-12-22T01:37:54.777Z,2.75
2018-12-22T01:41:58.377Z,3.10
2018-12-22T01:46:02.004Z,2.87
2018-12-22T01:50:06.375Z,2.47
2018-12-22T01:54:10.007Z,3.40
2018-12-22T01:58:13.699Z,2.90
2018-12-22T02:02:17.334Z,2.92
2018-12-22T02:09:54.189Z,2.58
2018-12-22T02:13:57.826Z,2.93
2018-12-22T02:18:01.489Z,2.77
2018-12-22T02:22:05.096Z,2.25
2018-12-22T02:26:08.739Z,3.00
2018-12-22T02:30:12.417Z,2.40
2018-12-22T02:34:16.158Z,3.20
2018-12-22T02:38:19.774Z,3.40
2018-12-22T02:42:23.377Z,3.10
2018-12-22T02:46:27.030Z,4.42
2018-12-22T02:50:30.673Z,5.47
2018-12-22T02:54:34.377Z,4.37
2018-12-22T02:58:37.999Z,4.92
2018-12-22T03:02:41.574Z,3.20
2018-12-22T03:06:45.174Z,4.33
2018-12-22T03:10:48.797Z,4.73
2018-12-22T03:14:52.420Z,4.40
2018-12-22T03:18:56.118Z,5.03
2018-12-22T03:22:59.690Z,4.80
2018-12-22T03:27:03.355Z,4.40
2018-12-22T03:31:06.953Z,4.70
2018-12-22T03:35:10.570Z,7.17
2018-12-22T03:39:14.302Z,6.55
2018-12-22T03:43:17.922Z,7.83
2018-12-22T03:47:21.542Z,9.18
2018-12-22T03:51:25.198Z,11.25
2018-12-22T03:55:28.803Z,10.27
2018-12-22T03:59:32.493Z,10.23
2018-12-22T04:03:36.124Z,11.33
2018-12-22T04:07:39.718Z,11.20
2018-12-22T04:11:43.323Z,12.80
2018-12-22T04:15:46.963Z,11.00
2018-12-22T04:19:50.565Z,12.10
2018-12-22T04:23:54.204Z,11.12
2018-12-22T04:27:57.785Z,12.55
2018-12-22T04:32:01.380Z,14.13
2018-12-22T04:36:05.139Z,15.77
2018-12-22T04:40:08.753Z,12.60
2018-12-22T04:44:12.394Z,15.65
2018-12-22T04:48:16.001Z,13.30
2018-12-22T04:52:19.624Z,14.05
2018-12-22T04:56:23.286Z,14.13
2018-12-22T05:00:26.895Z,15.40
2018-12-22T05:04:30.495Z,12.45
2018-12-22T05:08:34.189Z,12.23
2018-12-22T05:12:37.854Z,16.73
2018-12-22T05:16:41.517Z,13.85
2018-12-22T05:20:45.152Z,14.83
2018-12-22T05:24:48.854Z,15.55
2018-12-22T05:28:52.475Z,17.02
2018-12-22T05:32:56.094Z,13.00
2018-12-22T05:36:59.710Z,13.40
2018-12-22T05:41:03.345Z,15.28
2018-12-22T05:45:07.098Z,15.33
2018-12-22T05:49:10.670Z,16.35
2018-12-22T05:53:14.346Z,11.75
2018-12-22T05:57:17.942Z,14.00
2018-12-22T06:01:21.565Z,14.18
2018-12-22T06:05:25.177Z,13.35
2018-12-22T06:09:28.758Z,12.10
2018-12-22T06:13:32.462Z,13.68
2018-12-22T06:17:36.162Z,13.87
2018-12-22T06:21:39.868Z,13.40
2018-12-22T06:25:43.569Z,12.90
2018-12-22T06:29:47.198Z,13.10
2018-12-22T06:33:50.816Z,13.93
2018-12-22T06:37:54.546Z,12.82
2018-12-22T06:41:58.169Z,13.08
2018-12-22T06:46:01.778Z,11.43
2018-12-22T06:50:05.601Z,12.43
2018-12-22T06:54:09.199Z,11.18
2018-12-22T06:58:12.809Z,11.30
2018-12-22T07:02:16.421Z,10.50
2018-12-22T07:06:20.048Z,12.67
2018-12-22T07:10:25.529Z,11.18
2018-12-22T07:14:29.290Z,12.98
2018-12-22T07:18:32.927Z,12.70
2018-12-22T07:22:36.537Z,12.53
2018-12-22T07:26:40.145Z,13.15
2018-12-22T07:30:43.770Z,12.03
2018-12-22T07:34:47.349Z,10.15
2018-12-22T07:38:50.961Z,11.53
2018-12-22T07:42:54.626Z,10.58
2018-12-22T07:46:58.266Z,10.05
2018-12-22T07:51:01.894Z,8.05
2018-12-22T07:55:05.622Z,8.65
2018-12-22T07:59:09.255Z,9.55
2018-12-22T08:03:13.918Z,10.70
2018-12-22T08:07:17.946Z,10.48
2018-12-22T08:11:21.577Z,13.48
2018-12-22T08:15:25.209Z,14.33
2018-12-22T08:19:28.816Z,12.97
2018-12-22T08:23:32.553Z,9.90
2018-12-22T08:27:36.194Z,7.87
2018-12-22T08:31:39.822Z,9.10
2018-12-22T08:35:43.410Z,8.00
2018-12-22T08:39:47.045Z,8.23
2018-12-22T08:43:50.773Z,8.15
2018-12-22T08:50:45.201Z,7.37
2018-12-22T08:54:48.826Z,5.97
2018-12-22T08:58:52.472Z,6.80
2018-12-22T09:02:56.094Z,6.75
2018-12-22T09:06:59.799Z,7.03
2018-12-22T09:11:03.381Z,7.35
2018-12-22T09:15:08.239Z,6.70
2018-12-22T09:19:11.853Z,8.57
2018-12-22T09:23:15.471Z,6.83
2018-12-22T09:27:19.094Z,6.75
2018-12-22T09:31:22.704Z,6.12
2018-12-22T09:35:26.326Z,6.60
2018-12-22T09:39:30.077Z,5.92
2018-12-22T09:43:33.717Z,5.00
2018-12-22T09:47:37.347Z,4.80
2018-12-22T09:51:40.963Z,3.85
2018-12-22T09:55:44.672Z,4.55
2018-12-22T09:59:48.382Z,4.42
2018-12-22T10:03:52.048Z,3.07
2018-12-22T10:07:55.686Z,4.20
2018-12-22T10:11:59.312Z,3.27
2018-12-22T10:16:02.931Z,2.57
2018-12-22T10:20:07.890Z,3.10
2018-12-22T10:24:11.542Z,2.58
2018-12-22T10:28:15.234Z,2.92
2018-12-22T10:32:18.871Z,1.97
2018-12-22T10:36:22.643Z,2.62
2018-12-22T10:40:26.321Z,2.15
2018-12-22T10:44:30.026Z,2.15
2018-12-22T10:48:33.729Z,2.77
2018-12-22T10:52:37.379Z,2.00
2018-12-22T10:56:41.078Z,2.50
2018-12-22T11:00:44.724Z,1.98
2018-12-22T11:04:48.346Z,1.87
2018-12-22T11:08:52.003Z,2.27
2018-12-22T11:12:59.231Z,2.80
2018-12-22T11:17:02.988Z,2.33
2018-12-22T11:21:06.787Z,2.62
2018-12-22T11:25:16.555Z,3.33
2018-12-22T11:29:20.611Z,2.83
2018-12-22T11:33:24.233Z,3.20
2018-12-22T11:37:27.821Z,3.58
2018-12-22T11:41:31.523Z,2.83
2018-12-22T11:45:35.213Z,3.67
2018-12-22T11:49:42.472Z,2.80
2018-12-22T11:53:46.302Z,3.00
2018-12-22T11:57:49.913Z,3.30
2018-12-22T12:01:53.529Z,2.55
2018-12-22T12:05:57.136Z,3.90
2018-12-22T12:10:00.758Z,2.90
2018-12-22T12:14:04.374Z,2.10
2018-12-22T12:18:25.657Z,2.47
2018-12-22T12:22:29.248Z,2.87
2018-12-22T12:26:32.882Z,2.93
2018-12-22T12:30:36.582Z,2.90
2018-12-22T12:34:40.414Z,3.58
2018-12-22T12:38:44.015Z,4.60
2018-12-22T12:42:47.658Z,5.72
2018-12-22T12:46:52.879Z,5.22
2018-12-22T12:50:56.501Z,4.35
2018-12-22T12:55:00.359Z,10.55
2018-12-22T12:59:03.990Z,16.87
2018-12-22T13:03:08.482Z,4.65
2018-12-22T13:07:12.381Z,4.55
2018-12-22T13:11:15.995Z,4.73
2018-12-22T13:15:19.654Z,5.83
2018-12-22T13:19:23.289Z,6.83
2018-12-22T13:23:26.927Z,6.80
2018-12-22T13:27:30.549Z,6.65
2018-12-22T13:31:34.289Z,7.95
2018-12-22T13:35:37.911Z,6.03
2018-12-22T13:39:41.601Z,7.45
2018-12-22T13:43:45.200Z,9.70
2018-12-22T13:47:48.955Z,5.50
2018-12-22T13:51:52.656Z,9.10
2018-12-22T13:55:56.285Z,9.45
2018-12-22T13:59:59.907Z,9.05
2018-12-22T14:04:03.541Z,7.22
2018-12-22T14:08:07.156Z,9.00
2018-12-22T14:12:10.830Z,6.90
2018-12-22T14:16:22.373Z,5.90
2018-12-22T14:20:26.611Z,8.13
2018-12-22T14:24:43.040Z,5.93
2018-12-22T14:28:46.382Z,7.20
2018-12-22T14:32:50.021Z,8.88
2018-12-22T14:36:53.741Z,7.10
2018-12-22T14:40:57.374Z,4.50
2018-12-22T14:45:01.013Z,6.37
2018-12-22T14:49:04.640Z,7.95
2018-12-22T14:53:08.295Z,3.55
2018-12-22T14:57:12.047Z,6.22
2018-12-22T15:01:15.818Z,5.62
2018-12-22T15:05:19.685Z,6.23
2018-12-22T15:09:23.303Z,2.98
2018-12-22T15:13:26.950Z,4.12
2018-12-22T15:17:30.662Z,5.20
2018-12-22T15:21:34.304Z,4.53
2018-12-22T15:25:37.918Z,7.12
2018-12-22T15:29:41.530Z,3.47
2018-12-22T15:33:45.165Z,6.22
2018-12-22T15:37:48.820Z,8.20
2018-12-22T15:41:52.453Z,6.33
2018-12-22T15:45:56.106Z,4.50
2018-12-22T15:49:59.729Z,8.10
2018-12-22T15:54:03.567Z,6.25
2018-12-22T15:58:07.420Z,6.40
2018-12-22T16:02:11.086Z,7.00
2018-12-22T16:06:14.841Z,6.47
2018-12-22T16:10:18.712Z,9.67
2018-12-22T16:14:22.383Z,6.80
2018-12-22T16:18:26.042Z,7.00
2018-12-22T16:22:29.706Z,6.83
2018-12-22T16:26:33.348Z,7.75
2018-12-22T16:30:42.267Z,6.80
2018-12-22T16:34:46.942Z,6.30
2018-12-22T16:38:50.566Z,5.53
2018-12-22T16:42:57.357Z,5.40
2018-12-22T16:47:01.230Z,5.60
2018-12-22T16:51:04.953Z,8.08
2018-12-22T16:55:11.010Z,4.77
2018-12-22T16:59:14.685Z,6.37
2018-12-22T17:03:18.301Z,4.80
2018-12-22T17:07:21.956Z,3.10
2018-12-22T17:11:25.608Z,5.93
2018-12-22T17:15:29.270Z,3.92
2018-12-22T17:19:33.013Z,4.78
2018-12-22T17:23:45.185Z,4.50
2018-12-22T17:27:48.818Z,3.35
2018-12-22T17:31:52.529Z,4.30
2018-12-22T17:35:56.115Z,5.10
2018-12-22T17:39:59.758Z,6.35
2018-12-22T17:44:03.373Z,7.83
2018-12-22T17:48:06.998Z,7.08
2018-12-22T17:52:10.685Z,5.28
2018-12-22T17:56:14.258Z,6.50
2018-12-22T18:00:18.025Z,5.40
2018-12-22T18:04:21.745Z,7.47
2018-12-22T18:08:25.382Z,3.10
2018-12-22T18:12:28.958Z,5.10
2018-12-22T18:16:32.686Z,5.20
2018-12-22T18:20:36.306Z,5.90
2018-12-22T18:24:39.988Z,5.20
2018-12-22T18:28:43.686Z,3.87
2018-12-22T18:32:47.392Z,3.87
2018-12-22T18:36:51.009Z,5.97
2018-12-22T18:40:54.657Z,4.47
2018-12-22T18:44:58.274Z,5.05
2018-12-22T18:49:01.910Z,5.25
2018-12-22T18:53:05.516Z,4.10
2018-12-22T18:57:09.157Z,4.80
2018-12-22T19:01:12.810Z,4.53
2018-12-22T19:05:16.786Z,4.95
2018-12-22T19:09:24.165Z,5.05
2018-12-22T19:13:27.807Z,4.28
2018-12-22T19:17:31.461Z,6.10
2018-12-22T19:21:35.082Z,5.22
2018-12-22T19:25:38.702Z,5.77
2018-12-22T19:29:42.424Z,6.22
2018-12-22T19:33:53.284Z,5.28
2018-12-22T19:37:51.688Z,4.20
2018-12-22T19:41:55.301Z,5.87
2018-12-22T19:45:58.925Z,6.42
2018-12-22T19:50:02.520Z,5.80
2018-12-22T19:54:06.147Z,5.45
2018-12-22T19:58:09.760Z,7.50
2018-12-22T20:02:13.493Z,5.67
2018-12-22T20:06:17.243Z,6.28
2018-12-22T20:10:20.859Z,5.03
2018-12-22T20:14:24.466Z,7.05
2018-12-22T20:18:28.085Z,5.08
2018-12-22T20:22:31.698Z,5.43
2018-12-22T20:26:35.327Z,5.58
2018-12-22T20:30:38.958Z,6.08
2018-12-22T20:34:42.570Z,5.70
2018-12-22T20:38:46.203Z,5.50
2018-12-22T20:42:49.912Z,6.83
2018-12-22T20:46:53.575Z,6.58
2018-12-22T20:50:57.166Z,6.20
2018-12-22T20:55:00.794Z,7.57
2018-12-22T20:59:04.569Z,6.62
2018-12-22T21:03:08.442Z,8.33
2018-12-22T21:07:12.063Z,5.97
2018-12-22T21:11:15.657Z,7.62
2018-12-22T21:15:19.305Z,9.90
2018-12-22T21:19:22.944Z,8.43
2018-12-22T21:23:26.625Z,7.40
2018-12-22T21:27:30.242Z,8.98
2018-12-22T21:31:33.818Z,7.47
2018-12-22T21:35:37.441Z,9.20
2018-12-22T21:39:41.085Z,9.30
2018-12-22T21:43:44.784Z,11.00
2018-12-22T21:47:48.386Z,7.78
2018-12-22T21:51:52.075Z,9.93
2018-12-22T21:55:55.685Z,7.73
2018-12-22T21:59:59.302Z,7.53
2018-12-22T22:04:02.918Z,9.28
2018-12-22T22:08:06.994Z,9.85
2018-12-22T22:12:10.585Z,9.58
2018-12-22T22:16:14.241Z,10.18
2018-12-22T22:20:17.862Z,9.20
2018-12-22T22:24:21.486Z,8.53
2018-12-22T22:28:25.102Z,10.05
2018-12-22T22:32:28.705Z,10.03
2018-12-22T22:36:32.323Z,8.38
2018-12-22T22:40:35.948Z,25.10
2018-12-22T22:44:39.724Z,48.87
2018-12-22T22:48:44.080Z,24.43
2018-12-22T22:52:47.738Z,36.27
2018-12-22T22:56:51.373Z,33.90
2018-12-22T23:00:55.060Z,10.45
2018-12-22T23:04:58.726Z,8.23
2018-12-22T23:09:02.345Z,7.70
2018-12-22T23:13:06.041Z,7.30
2018-12-22T23:17:09.694Z,7.08
2018-12-22T23:21:13.323Z,7.35
2018-12-22T23:25:16.948Z,7.10
2018-12-22T23:29:20.690Z,5.08
2018-12-22T23:33:24.310Z,4.15
2018-12-22T23:37:27.922Z,4.58
2018-12-22T23:41:31.534Z,4.00
2018-12-22T23:45:35.211Z,5.08
2018-12-22T23:49:39.155Z,3.77
2018-12-22T23:53:42.720Z,4.70
2018-12-22T23:57:46.343Z,2.95
